Time;durP1;ratioP1;P1;durP2;ratioP2;P2;SDS_P1;SDS_P2;PMS_P1;PMS_P2;Temp;Humidity;BMP_temperature;BMP_pressure;BME280_temperature;BME280_humidity;BME280_pressure;Samples;Min_cycle;Max_cycle;Signal;HPM_P1;HPM_P2
2021/12/22 00:00:55;;;;;;;25.30;14.65;;;-1.30;71.10;;;;;;5054710;28;20029;-72
2021/12/22 00:03:22;;;;;;;23.33;13.50;;;-1.30;70.90;;;;;;5054852;28;20068;-72
2021/12/22 00:05:50;;;;;;;23.70;14.32;;;-1.30;70.70;;;;;;5055396;28;20025;-72
2021/12/22 00:08:17;;;;;;;25.30;15.18;;;-1.30;70.50;;;;;;5055421;28;20035;-72
2021/12/22 00:10:44;;;;;;;23.92;14.43;;;-1.40;70.40;;;;;;5055591;28;20029;-72
2021/12/22 00:13:10;;;;;;;26.20;15.05;;;-1.40;70.60;;;;;;5055240;28;20389;-73
2021/12/22 00:15:36;;;;;;;23.95;13.82;;;-1.50;70.80;;;;;;5055334;28;20025;-72
2021/12/22 00:18:02;;;;;;;25.90;13.70;;;-1.50;70.80;;;;;;5055353;28;20446;-72
2021/12/22 00:20:28;;;;;;;22.50;13.27;;;-1.60;70.40;;;;;;5037352;28;20032;-72
2021/12/22 00:22:54;;;;;;;20.45;12.18;;;-1.60;70.50;;;;;;5055129;28;20389;-72
2021/12/22 00:25:24;;;;;;;21.63;12.48;;;-1.70;70.70;;;;;;5055149;28;20033;-72
2021/12/22 00:27:50;;;;;;;21.55;12.68;;;-1.70;70.60;;;;;;5055213;28;20024;-73
2021/12/22 00:30:16;;;;;;;19.67;12.50;;;-1.70;70.70;;;;;;5054908;28;20025;-72
2021/12/22 00:32:49;;;;;;;20.23;12.75;;;-1.70;70.80;;;;;;5055031;28;20071;-72
2021/12/22 00:35:14;;;;;;;25.38;14.55;;;-1.70;70.80;;;;;;5054739;28;20052;-73
2021/12/22 00:37:40;;;;;;;28.92;15.23;;;-1.70;71.00;;;;;;5054828;28;20021;-72
2021/12/22 00:40:07;;;;;;;27.55;15.27;;;-1.90;71.70;;;;;;5054886;28;20096;-72
2021/12/22 00:42:32;;;;;;;28.80;15.63;;;-2.00;72.10;;;;;;5055081;28;20029;-73
2021/12/22 00:44:58;;;;;;;31.80;16.67;;;-2.00;72.40;;;;;;5054853;28;20094;-72
2021/12/22 00:47:27;;;;;;;31.52;17.80;;;-2.20;72.60;;;;;;5054696;28;20035;-72
2021/12/22 00:49:55;;;;;;;33.90;18.52;;;-2.20;72.70;;;;;;5054676;28;20048;-72
2021/12/22 00:52:21;;;;;;;33.65;17.25;;;-2.30;73.10;;;;;;5054714;28;20017;-72
2021/12/22 00:54:47;;;;;;;32.53;17.85;;;-2.40;73.10;;;;;;5054518;28;20385;-73
2021/12/22 00:57:15;;;;;;;29.23;16.65;;;-2.40;74.10;;;;;;5054443;28;20028;-72
2021/12/22 00:59:40;;;;;;;32.67;18.02;;;-2.60;73.50;;;;;;5036578;28;20017;-72
2021/12/22 01:02:09;;;;;;;32.90;17.70;;;-2.80;74.40;;;;;;5054419;28;20501;-72
2021/12/22 01:04:35;;;;;;;34.03;16.40;;;-2.90;75.00;;;;;;5054440;28;20300;-72
2021/12/22 01:07:01;;;;;;;33.55;17.10;;;-2.90;75.10;;;;;;5054260;28;20096;-72
2021/12/22 01:09:26;;;;;;;29.08;16.42;;;-2.70;74.90;;;;;;5054207;28;20446;-72
2021/12/22 01:11:52;;;;;;;30.35;16.95;;;-2.80;74.70;;;;;;5054017;28;20025;-72
2021/12/22 01:14:18;;;;;;;29.05;15.27;;;-2.80;74.80;;;;;;5054068;28;20017;-72
2021/12/22 01:16:47;;;;;;;31.55;16.52;;;-2.80;74.70;;;;;;5054124;28;20061;-72
2021/12/22 01:19:18;;;;;;;32.75;17.20;;;-2.80;74.50;;;;;;5053998;28;20028;-72
2021/12/22 01:21:49;;;;;;;30.58;17.38;;;-2.80;74.40;;;;;;5054029;28;20040;-72
2021/12/22 01:24:21;;;;;;;30.02;16.30;;;-2.70;74.50;;;;;;5053762;28;20527;-72
2021/12/22 01:26:57;;;;;;;28.15;15.30;;;-2.70;74.30;;;;;;5053959;28;20033;-72
2021/12/22 01:29:23;;;;;;;28.08;15.30;;;-2.70;74.10;;;;;;5053758;28;20021;-72
2021/12/22 01:31:48;;;;;;;32.38;16.20;;;-2.60;74.00;;;;;;5053775;28;20473;-73
2021/12/22 01:34:14;;;;;;;33.97;17.55;;;-2.60;73.90;;;;;;5053524;28;20474;-73
2021/12/22 01:36:40;;;;;;;38.15;19.20;;;-2.70;73.90;;;;;;5035877;28;20037;-73
2021/12/22 01:39:06;;;;;;;36.33;17.95;;;-2.60;74.00;;;;;;5053636;28;20060;-72
2021/12/22 01:41:32;;;;;;;27.05;16.02;;;-2.70;74.30;;;;;;5053701;28;20104;-73
2021/12/22 01:43:57;;;;;;;27.38;15.05;;;-2.70;74.50;;;;;;5053539;28;20040;-72
2021/12/22 01:49:41;;;;;;;28.45;15.23;;;-2.70;74.80;;;;;;5053569;28;20117;-72
2021/12/22 01:52:07;;;;;;;32.45;16.08;;;-2.60;74.50;;;;;;5053536;28;20060;-73
2021/12/22 01:54:39;;;;;;;32.35;16.20;;;-2.70;74.70;;;;;;5053470;28;20089;-72
2021/12/22 01:57:12;;;;;;;28.33;16.15;;;-2.70;74.00;;;;;;5053505;28;20079;-73
2021/12/22 01:59:44;;;;;;;29.50;14.73;;;-2.80;73.40;;;;;;5053340;28;20104;-72
2021/12/22 02:02:12;;;;;;;29.55;16.95;;;-2.90;73.40;;;;;;5052950;28;20083;-72
2021/12/22 02:04:38;;;;;;;31.88;17.08;;;-3.20;73.80;;;;;;5053148;28;20033;-72
2021/12/22 02:07:05;;;;;;;32.97;16.70;;;-3.20;74.20;;;;;;5053234;28;20028;-72
2021/12/22 02:09:58;;;;;;;32.33;16.27;;;-3.40;74.40;;;;;;5053283;28;20108;-73
2021/12/22 02:12:25;;;;;;;28.58;15.82;;;-3.40;74.60;;;;;;5053008;28;20032;-72
2021/12/22 02:14:51;;;;;;;33.45;17.65;;;-3.40;75.10;;;;;;5035263;28;20048;-72
2021/12/22 02:17:17;;;;;;;32.10;15.75;;;-3.40;75.50;;;;;;5053057;28;20056;-72
2021/12/22 02:19:43;;;;;;;28.60;15.38;;;-3.30;75.60;;;;;;5053142;28;20025;-72
2021/12/22 02:22:12;;;;;;;29.10;15.07;;;-3.20;75.50;;;;;;5052460;28;20533;-72
2021/12/22 02:24:37;;;;;;;27.25;15.88;;;-3.10;75.40;;;;;;5052747;28;20036;-72
2021/12/22 02:27:09;;;;;;;34.75;17.10;;;-3.10;75.10;;;;;;5052798;28;20017;-72
2021/12/22 02:29:38;;;;;;;30.90;15.80;;;-3.10;74.70;;;;;;5052994;28;20037;-72
2021/12/22 02:32:15;;;;;;;30.08;17.10;;;-3.10;74.50;;;;;;5052898;28;20063;-72
2021/12/22 02:34:43;;;;;;;24.95;14.48;;;-3.10;74.40;;;;;;5052684;28;20122;-72
2021/12/22 02:37:13;;;;;;;29.38;15.52;;;-3.10;74.10;;;;;;5052692;28;20024;-72
2021/12/22 02:39:57;;;;;;;28.83;15.82;;;-3.10;73.90;;;;;;5034963;28;20099;-72
2021/12/22 02:42:25;;;;;;;29.15;16.38;;;-3.10;73.70;;;;;;5052722;28;20029;-72
2021/12/22 02:44:51;;;;;;;33.35;17.48;;;-3.10;73.60;;;;;;5052759;28;20059;-72
2021/12/22 02:47:18;;;;;;;30.45;15.82;;;-3.10;73.30;;;;;;5052646;28;20473;-72
2021/12/22 02:49:44;;;;;;;32.67;15.70;;;-3.10;73.10;;;;;;5052720;28;20029;-73
2021/12/22 02:52:10;;;;;;;29.23;14.68;;;-3.10;73.10;;;;;;5052619;28;20071;-72
2021/12/22 02:54:42;;;;;;;27.35;14.00;;;-3.10;73.10;;;;;;5052663;28;20028;-72
2021/12/22 02:57:21;;;;;;;29.92;16.77;;;-3.10;73.10;;;;;;5034847;28;20049;-72
2021/12/22 03:00:25;;;;;;;27.35;14.30;;;-3.40;72.90;;;;;;5052433;28;20485;-73
2021/12/22 03:02:43;;;;;;;28.75;15.30;;;-3.60;73.40;;;;;;5051011;28;20021;-73
2021/12/22 03:05:09;;;;;;;27.67;14.93;;;-3.70;73.60;;;;;;5052365;28;20362;-72
2021/12/22 03:07:35;;;;;;;32.15;17.00;;;-3.70;73.70;;;;;;5052468;28;20025;-72
2021/12/22 03:10:12;;;;;;;30.52;15.52;;;-3.60;73.90;;;;;;5052217;28;20370;-73
2021/12/22 03:12:39;;;;;;;31.92;16.20;;;-3.60;74.10;;;;;;5052495;28;20025;-73
2021/12/22 03:15:07;;;;;;;33.28;15.60;;;-3.50;74.30;;;;;;5052269;28;20021;-73
2021/12/22 03:17:33;;;;;;;28.02;15.75;;;-3.50;74.50;;;;;;5052345;28;20100;-72
2021/12/22 03:19:59;;;;;;;28.98;15.57;;;-3.40;74.60;;;;;;5052298;28;20040;-73
2021/12/22 03:22:25;;;;;;;25.27;14.60;;;-3.40;74.20;;;;;;5052228;28;20404;-73
2021/12/22 03:24:51;;;;;;;30.75;16.42;;;-3.40;73.90;;;;;;5052234;28;20076;-73
2021/12/22 03:27:18;;;;;;;29.27;15.18;;;-3.50;73.70;;;;;;5034377;28;20029;-73
2021/12/22 03:29:44;;;;;;;27.65;14.82;;;-3.50;73.80;;;;;;5052176;28;20032;-73
2021/12/22 03:32:10;;;;;;;29.15;14.68;;;-3.70;74.20;;;;;;5034230;28;20025;-73
2021/12/22 03:34:37;;;;;;;31.50;15.32;;;-3.80;74.60;;;;;;5053035;28;20489;-73
2021/12/22 03:37:03;;;;;;;26.38;13.80;;;-3.70;75.00;;;;;;5056078;28;20380;-73
2021/12/22 03:39:29;;;;;;;29.10;15.35;;;-3.70;74.70;;;;;;5055942;28;20105;-73
2021/12/22 03:41:55;;;;;;;30.48;15.55;;;-3.80;74.50;;;;;;5056051;28;20100;-72
2021/12/22 03:44:20;;;;;;;26.38;14.68;;;-3.80;74.70;;;;;;5055738;28;20045;-73
2021/12/22 03:46:46;;;;;;;27.73;15.43;;;-3.80;74.90;;;;;;5055939;28;20481;-73
2021/12/22 03:49:14;;;;;;;26.27;15.52;;;-3.70;75.00;;;;;;5055818;28;20068;-73
2021/12/22 03:51:40;;;;;;;34.95;17.02;;;-3.70;74.70;;;;;;5055763;28;20027;-73
2021/12/22 03:54:07;;;;;;;30.92;16.45;;;-3.70;74.00;;;;;;5055501;28;20420;-73
2021/12/22 03:56:33;;;;;;;25.55;14.43;;;-3.80;73.50;;;;;;5055534;28;20029;-73
2021/12/22 03:58:58;;;;;;;27.35;14.32;;;-3.80;73.40;;;;;;5055643;28;20127;-73
2021/12/22 04:01:24;;;;;;;31.33;16.13;;;-3.80;73.50;;;;;;5055546;28;20029;-72
2021/12/22 04:03:54;;;;;;;30.58;14.68;;;-3.70;73.80;;;;;;5055430;28;20037;-72
2021/12/22 04:06:20;;;;;;;28.17;14.35;;;-3.70;73.80;;;;;;5055505;28;20478;-72
2021/12/22 04:08:46;;;;;;;24.13;14.52;;;-3.60;73.70;;;;;;5055521;28;20338;-72
2021/12/22 04:11:11;;;;;;;27.27;13.73;;;-3.60;73.60;;;;;;5055339;28;20055;-72
2021/12/22 04:13:37;;;;;;;29.15;14.43;;;-3.50;73.60;;;;;;5055236;28;20025;-72
2021/12/22 04:16:03;;;;;;;28.42;14.20;;;-3.50;73.40;;;;;;5055215;28;20148;-72
2021/12/22 04:18:29;;;;;;;25.30;13.85;;;-3.50;73.10;;;;;;5055351;28;20096;-72
2021/12/22 04:20:54;;;;;;;24.92;12.93;;;-3.50;72.90;;;;;;5055290;28;20021;-72
2021/12/22 04:23:20;;;;;;;26.05;13.52;;;-3.50;72.80;;;;;;5054955;28;20032;-72
2021/12/22 04:25:47;;;;;;;27.67;14.10;;;-3.50;72.80;;;;;;5055088;28;20021;-72
2021/12/22 04:28:12;;;;;;;27.42;13.90;;;-3.50;72.60;;;;;;5055024;28;20087;-72
2021/12/22 04:30:41;;;;;;;26.40;14.45;;;-3.50;72.60;;;;;;5055119;28;20029;-72
2021/12/22 04:33:06;;;;;;;30.23;15.13;;;-3.50;72.50;;;;;;5054738;28;20059;-72
2021/12/22 04:35:34;;;;;;;24.85;14.15;;;-3.50;72.60;;;;;;5036977;28;20021;-72
2021/12/22 04:38:01;;;;;;;26.45;14.23;;;-3.60;72.60;;;;;;5054819;28;20063;-72
2021/12/22 04:40:27;;;;;;;26.67;14.10;;;-3.60;72.70;;;;;;5054674;28;20045;-72
2021/12/22 04:42:53;;;;;;;26.42;15.43;;;-3.70;72.60;;;;;;5036714;28;20384;-72
2021/12/22 04:45:18;;;;;;;26.48;14.80;;;-3.70;72.40;;;;;;5054117;28;20037;-72
2021/12/22 04:47:45;;;;;;;31.73;15.02;;;-3.80;71.80;;;;;;5054661;28;20052;-72
2021/12/22 04:50:16;;;;;;;29.88;14.95;;;-3.90;72.20;;;;;;5054403;28;20482;-72
2021/12/22 04:52:50;;;;;;;26.33;15.60;;;-3.90;72.70;;;;;;5054667;28;20395;-72
2021/12/22 04:55:16;;;;;;;27.75;14.23;;;-3.90;72.80;;;;;;5054396;28;20115;-72
2021/12/22 04:57:42;;;;;;;25.40;13.88;;;-3.90;73.10;;;;;;5054422;28;20099;-72
2021/12/22 05:00:10;;;;;;;35.72;17.15;;;-3.90;73.10;;;;;;5054499;28;20031;-72
2021/12/22 05:02:36;;;;;;;32.17;15.63;;;-3.90;73.00;;;;;;5054371;28;20029;-73
2021/12/22 05:05:02;;;;;;;30.77;16.50;;;-3.90;73.10;;;;;;5054159;28;20171;-72
2021/12/22 05:07:27;;;;;;;34.60;15.95;;;-3.90;72.90;;;;;;5054284;28;20527;-72
2021/12/22 05:09:53;;;;;;;27.13;14.73;;;-3.90;72.90;;;;;;5054277;28;20029;-72
2021/12/22 05:12:18;;;;;;;34.22;15.55;;;-3.90;73.00;;;;;;5054323;28;20025;-72
2021/12/22 05:14:47;;;;;;;33.58;16.13;;;-3.90;73.10;;;;;;5054132;28;20029;-72
2021/12/22 05:17:20;;;;;;;31.88;16.50;;;-3.90;73.10;;;;;;5036288;28;20104;-72
2021/12/22 05:19:46;;;;;;;28.95;15.60;;;-3.90;72.90;;;;;;5054033;28;20040;-72
2021/12/22 05:22:11;;;;;;;34.85;17.35;;;-4.00;72.70;;;;;;5054004;28;20021;-72
2021/12/22 05:24:37;;;;;;;37.22;18.83;;;-4.00;72.60;;;;;;5053913;28;20064;-72
2021/12/22 05:27:03;;;;;;;45.00;19.23;;;-4.10;72.70;;;;;;5053845;28;20017;-72
2021/12/22 05:29:29;;;;;;;42.08;18.73;;;-4.10;73.00;;;;;;5053855;28;20099;-72
2021/12/22 05:31:56;;;;;;;40.80;18.45;;;-4.10;73.20;;;;;;5035811;28;20013;-72
2021/12/22 05:34:21;;;;;;;39.10;18.25;;;-4.10;73.40;;;;;;5053764;28;20041;-72
2021/12/22 05:36:47;;;;;;;42.38;19.83;;;-4.10;73.40;;;;;;5053740;28;20149;-72
2021/12/22 05:39:13;;;;;;;41.78;19.48;;;-4.00;73.30;;;;;;5035795;28;20120;-72
2021/12/22 05:41:38;;;;;;;41.70;21.95;;;-4.00;73.00;;;;;;5053705;28;20060;-72
2021/12/22 05:44:04;;;;;;;50.70;23.50;;;-4.00;72.80;;;;;;5053343;28;20051;-72
2021/12/22 05:46:29;;;;;;;48.45;23.38;;;-4.00;72.80;;;;;;5053417;28;20017;-72
2021/12/22 05:48:55;;;;;;;42.88;20.60;;;-4.00;72.90;;;;;;5035331;28;20029;-72
2021/12/22 05:51:22;;;;;;;43.35;20.90;;;-4.10;72.90;;;;;;5053584;28;20082;-72
2021/12/22 05:53:48;;;;;;;41.33;18.60;;;-4.10;72.90;;;;;;5035710;28;20025;-72
2021/12/22 05:56:14;;;;;;;40.88;19.20;;;-4.10;72.80;;;;;;5053207;28;20028;-72
2021/12/22 05:58:39;;;;;;;38.70;18.92;;;-4.10;72.70;;;;;;5052564;28;20025;-72
2021/12/22 06:01:05;;;;;;;38.25;19.85;;;-4.10;72.70;;;;;;5053505;28;20377;-73
2021/12/22 06:03:30;;;;;;;37.63;19.67;;;-4.10;72.70;;;;;;5053259;28;20048;-72
2021/12/22 06:05:56;;;;;;;37.08;20.60;;;-4.10;72.90;;;;;;5053238;28;20036;-72
2021/12/22 06:08:21;;;;;;;39.55;20.88;;;-4.10;73.10;;;;;;5053125;28;20462;-72
2021/12/22 06:10:47;;;;;;;40.22;20.13;;;-4.00;73.20;;;;;;5053049;28;20421;-72
2021/12/22 06:13:13;;;;;;;38.80;20.27;;;-4.00;73.50;;;;;;5052746;28;20113;-72
2021/12/22 06:15:40;;;;;;;39.75;20.33;;;-4.00;73.60;;;;;;5052742;28;20021;-72
2021/12/22 06:18:06;;;;;;;39.20;20.20;;;-3.90;73.50;;;;;;5035335;28;20458;-71
2021/12/22 06:20:33;;;;;;;46.65;20.40;;;-4.00;73.10;;;;;;5052699;28;20489;-72
2021/12/22 06:22:59;;;;;;;39.47;21.23;;;-4.00;72.70;;;;;;5033844;28;20385;-71
2021/12/22 06:25:25;;;;;;;50.35;24.63;;;-4.00;72.30;;;;;;5034801;28;20072;-72
2021/12/22 06:27:51;;;;;;;48.70;26.08;;;-4.00;72.10;;;;;;5052390;28;20075;-72
2021/12/22 06:30:20;;;;;;;49.58;24.98;;;-4.00;72.10;;;;;;5051913;28;20020;-73
2021/12/22 06:32:47;;;;;;;66.03;33.03;;;-4.00;73.00;;;;;;5052434;28;20114;-74
2021/12/22 06:35:12;;;;;;;65.18;30.77;;;-4.10;72.30;;;;;;5051942;28;20139;-73
2021/12/22 06:37:38;;;;;;;56.88;28.02;;;-4.10;72.20;;;;;;5052780;28;20441;-72
2021/12/22 06:40:05;;;;;;;55.13;26.63;;;-4.10;72.10;;;;;;5052498;28;20017;-72
2021/12/22 06:42:31;;;;;;;48.75;24.58;;;-4.10;72.10;;;;;;5052823;28;20017;-73
2021/12/22 06:44:57;;;;;;;50.78;24.08;;;-4.10;72.10;;;;;;5052568;28;20039;-73
2021/12/22 06:47:23;;;;;;;49.38;25.17;;;-4.10;72.30;;;;;;5034478;28;20021;-73
2021/12/22 06:49:48;;;;;;;47.80;23.95;;;-4.10;72.50;;;;;;5052464;28;20506;-71
2021/12/22 06:52:14;;;;;;;51.03;27.05;;;-4.10;72.40;;;;;;5053116;28;20025;-73
2021/12/22 06:54:39;;;;;;;49.28;24.73;;;-4.20;72.20;;;;;;5052831;28;20470;-73
2021/12/22 06:57:05;;;;;;;58.70;25.70;;;-4.20;72.40;;;;;;5052669;28;20474;-73
2021/12/22 06:59:32;;;;;;;54.97;25.75;;;-4.20;72.50;;;;;;5052535;28;20477;-73
2021/12/22 07:01:57;;;;;;;51.28;23.95;;;-4.20;72.60;;;;;;5052621;28;20393;-73
2021/12/22 07:04:24;;;;;;;61.28;27.50;;;-4.10;72.90;;;;;;5052199;28;20040;-72
2021/12/22 07:06:49;;;;;;;59.42;26.75;;;-4.10;73.00;;;;;;5052697;28;20076;-73
2021/12/22 07:09:15;;;;;;;57.30;27.48;;;-4.10;72.90;;;;;;5054304;28;20405;-73
2021/12/22 07:11:43;;;;;;;53.53;26.20;;;-4.20;72.90;;;;;;5056209;28;20111;-73
2021/12/22 07:14:09;;;;;;;51.22;26.30;;;-4.10;73.30;;;;;;5056231;28;20021;-72
2021/12/22 07:16:35;;;;;;;49.75;24.60;;;-4.10;73.40;;;;;;5056204;28;20091;-72
2021/12/22 07:19:01;;;;;;;46.17;23.58;;;-4.10;73.10;;;;;;5056453;28;20473;-73
2021/12/22 07:21:27;;;;;;;48.70;24.55;;;-4.00;73.00;;;;;;5056345;28;20029;-72
2021/12/22 07:23:52;;;;;;;50.72;23.95;;;-4.00;73.10;;;;;;5037954;28;20071;-73
2021/12/22 07:26:18;;;;;;;45.08;22.65;;;-3.90;73.10;;;;;;5055968;28;20104;-73
2021/12/22 07:28:47;;;;;;;51.45;25.20;;;-3.90;72.70;;;;;;5055853;28;20469;-73
2021/12/22 07:31:15;;;;;;;53.28;25.48;;;-3.90;72.30;;;;;;5055839;28;20053;-73
2021/12/22 07:33:51;;;;;;;50.30;25.08;;;-3.90;72.20;;;;;;5056588;28;20053;-72
2021/12/22 07:36:16;;;;;;;52.22;25.52;;;-3.90;72.40;;;;;;5055939;28;20021;-72
2021/12/22 07:39:02;;;;;;;74.70;32.35;;;-3.80;72.20;;;;;;5055588;28;20067;-72
2021/12/22 07:41:28;;;;;;;;;;;-3.80;72.10;;;;;;5056338;28;20033;-72
2021/12/22 07:43:54;;;;;;;59.88;26.92;;;-3.70;71.90;;;;;;5055699;28;19912;-73
2021/12/22 07:46:20;;;;;;;52.47;25.50;;;-3.80;71.60;;;;;;5056013;28;20024;-72
2021/12/22 07:48:46;;;;;;;56.45;25.48;;;-3.80;71.40;;;;;;5055769;28;20507;-72
2021/12/22 07:51:12;;;;;;;54.20;24.80;;;-3.80;71.50;;;;;;5055515;28;20096;-71
2021/12/22 07:53:38;;;;;;;55.70;27.70;;;-3.80;71.50;;;;;;5055443;28;20549;-71
2021/12/22 07:56:04;;;;;;;53.75;24.85;;;-3.80;71.50;;;;;;5055447;28;20096;-71
2021/12/22 07:58:30;;;;;;;58.00;25.40;;;-3.80;71.40;;;;;;5037709;28;20051;-72
2021/12/22 08:00:56;;;;;;;57.38;26.58;;;-3.80;71.40;;;;;;5055445;28;20473;-71
2021/12/22 08:03:23;;;;;;;60.97;26.42;;;-3.70;71.50;;;;;;5037242;28;20115;-72
2021/12/22 08:05:49;;;;;;;56.28;26.40;;;-3.60;72.50;;;;;;5055146;28;20033;-72
2021/12/22 08:08:17;;;;;;;54.95;27.35;;;-3.50;71.60;;;;;;5054871;28;20021;-72
2021/12/22 08:10:43;;;;;;;55.88;26.98;;;-3.60;71.20;;;;;;5037248;28;20037;-72
2021/12/22 08:13:08;;;;;;;47.53;24.63;;;-3.60;71.30;;;;;;5055204;28;20025;-73
2021/12/22 08:15:34;;;;;;;52.42;24.73;;;-3.60;71.40;;;;;;5055166;28;20025;-73
2021/12/22 08:18:00;;;;;;;53.35;24.83;;;-3.50;71.40;;;;;;5054983;28;20025;-72
2021/12/22 08:20:26;;;;;;;55.13;26.40;;;-3.40;71.40;;;;;;5053800;28;20362;-73
2021/12/22 08:22:52;;;;;;;59.47;27.83;;;-3.30;71.30;;;;;;5055074;28;20060;-72
2021/12/22 08:25:18;;;;;;;59.85;28.67;;;-3.20;71.00;;;;;;5054699;28;20060;-72
2021/12/22 08:27:43;;;;;;;56.35;26.75;;;-3.10;71.00;;;;;;5054942;28;20076;-72
2021/12/22 08:30:10;;;;;;;56.38;26.60;;;-3.00;71.20;;;;;;5054989;28;20024;-73
2021/12/22 08:32:35;;;;;;;49.17;24.48;;;-2.80;71.00;;;;;;5055032;28;20453;-72
2021/12/22 08:35:03;;;;;;;40.72;21.25;;;-2.60;71.00;;;;;;5054341;28;20086;-73
2021/12/22 08:40:16;;;;;;;28.60;14.93;;;-2.40;71.80;;;;;;5055080;28;20037;-72
2021/12/22 08:42:44;;;;;;;44.75;19.13;;;-2.00;77.50;;;;;;5055277;28;20017;-70
2021/12/22 08:45:11;;;;;;;38.30;19.35;;;-1.70;74.40;;;;;;5054879;28;20041;-83
2021/12/22 08:47:36;;;;;;;39.42;20.00;;;-1.50;73.70;;;;;;5055164;28;20025;-73
2021/12/22 08:50:04;;;;;;;47.33;19.75;;;-1.30;71.70;;;;;;5055160;28;20104;-70
2021/12/22 08:52:30;;;;;;;39.85;19.58;;;-0.80;79.80;;;;;;5055074;28;20025;-77
2021/12/22 08:54:55;;;;;;;38.08;19.50;;;-0.10;80.50;;;;;;5037361;28;20372;-69
2021/12/22 08:57:21;;;;;;;32.35;18.83;;;0.70;73.80;;;;;;5063532;28;20036;-69
2021/12/22 08:59:47;;;;;;;35.50;18.67;;;1.30;67.40;;;;;;5065981;28;20036;-72
2021/12/22 09:02:13;;;;;;;34.35;18.65;;;1.50;62.50;;;;;;5062984;28;20028;-70
2021/12/22 09:04:38;;;;;;;31.55;18.45;;;1.70;60.40;;;;;;5066013;28;20033;-69
2021/12/22 09:07:04;;;;;;;28.65;17.85;;;1.90;59.00;;;;;;5064546;28;20092;-69
2021/12/22 09:09:30;;;;;;;32.45;19.55;;;2.00;57.30;;;;;;5058005;28;20021;-69
2021/12/22 09:11:55;;;;;;;30.98;18.13;;;2.00;56.40;;;;;;5054210;28;20555;-69
2021/12/22 09:14:32;;;;;;;33.67;19.00;;;2.10;56.70;;;;;;5054492;28;20025;-74
2021/12/22 09:16:57;;;;;;;38.90;23.40;;;2.30;56.50;;;;;;5054128;28;20017;-72
2021/12/22 09:19:23;;;;;;;35.45;19.58;;;2.20;54.40;;;;;;5054039;28;20108;-76
2021/12/22 09:21:49;;;;;;;34.55;20.00;;;2.00;55.00;;;;;;5054028;28;20021;-71
2021/12/22 09:24:14;;;;;;;34.30;20.10;;;1.90;54.50;;;;;;5053563;28;20107;-73
2021/12/22 09:26:40;;;;;;;35.00;19.58;;;1.80;54.90;;;;;;5053971;28;20442;-73
2021/12/22 09:29:06;;;;;;;32.22;19.58;;;1.80;54.90;;;;;;5053416;28;20025;-73
2021/12/22 09:31:32;;;;;;;32.60;19.15;;;1.90;54.50;;;;;;5053627;28;20113;-73
2021/12/22 09:33:58;;;;;;;34.35;19.90;;;2.00;54.30;;;;;;5053379;28;20124;-74
2021/12/22 09:36:24;;;;;;;32.38;19.92;;;2.10;54.20;;;;;;5053711;28;20032;-74
2021/12/22 09:38:50;;;;;;;30.58;18.08;;;2.30;53.50;;;;;;5035884;28;20312;-73
2021/12/22 09:41:16;;;;;;;31.08;18.08;;;2.30;52.20;;;;;;5053457;28;20086;-74
2021/12/22 09:43:42;;;;;;;35.50;20.00;;;2.40;52.60;;;;;;5053428;28;20032;-73
2021/12/22 09:46:11;;;;;;;31.30;18.67;;;2.30;52.50;;;;;;5035360;28;20035;-74
2021/12/22 09:53:43;;;;;;;29.75;19.13;;;2.40;53.50;;;;;;5053329;28;20021;-73
2021/12/22 09:56:14;;;;;;;30.63;19.55;;;2.70;52.60;;;;;;5053185;28;20027;-74
2021/12/22 09:58:42;;;;;;;31.30;18.88;;;2.60;52.10;;;;;;5035511;28;20040;-72
2021/12/22 10:01:08;;;;;;;35.67;20.95;;;2.60;52.00;;;;;;5056961;28;20149;-73
2021/12/22 10:03:34;;;;;;;30.58;18.95;;;2.60;52.40;;;;;;5056804;28;20108;-72
2021/12/22 10:06:01;;;;;;;32.75;19.52;;;2.30;53.00;;;;;;5052741;28;20021;-73
2021/12/22 10:08:28;;;;;;;32.97;20.40;;;2.10;54.50;;;;;;5052987;28;20044;-72
2021/12/22 10:11:06;;;;;;;33.78;19.40;;;2.30;54.30;;;;;;5052882;28;20053;-73
2021/12/22 10:13:33;;;;;;;34.17;20.98;;;2.70;52.90;;;;;;5034962;28;20029;-73
2021/12/22 10:15:59;;;;;;;30.35;19.42;;;2.70;52.00;;;;;;5052430;28;20028;-73
2021/12/22 10:18:27;;;;;;;33.55;20.13;;;2.90;51.70;;;;;;5052758;28;20033;-73
2021/12/22 10:21:13;;;;;;;34.70;20.23;;;3.10;50.80;;;;;;5052613;28;20065;-73
2021/12/22 10:23:46;;;;;;;34.47;19.60;;;3.30;50.20;;;;;;5052669;28;20032;-72
2021/12/22 10:26:18;;;;;;;33.20;21.00;;;3.20;50.30;;;;;;5052654;28;20029;-73
2021/12/22 10:28:49;;;;;;;33.05;20.00;;;3.20;50.20;;;;;;5034581;28;20060;-73
2021/12/22 10:31:15;;;;;;;36.70;20.75;;;3.30;50.00;;;;;;5052551;28;20024;-74
2021/12/22 10:33:43;;;;;;;32.35;19.73;;;3.50;49.60;;;;;;5034346;28;20037;-73
2021/12/22 10:36:19;;;;;;;33.88;19.98;;;3.80;48.80;;;;;;5034379;28;20033;-73
2021/12/22 10:39:00;;;;;;;36.05;20.77;;;4.00;47.90;;;;;;5052805;28;20021;-73
2021/12/22 10:41:28;;;;;;;35.88;20.83;;;4.30;47.20;;;;;;5052468;28;20029;-74
2021/12/22 10:43:54;;;;;;;33.47;20.42;;;4.60;45.80;;;;;;5051789;28;20033;-74
2021/12/22 10:46:25;;;;;;;38.40;22.63;;;4.80;44.80;;;;;;5052422;28;20090;-74
2021/12/22 10:49:23;;;;;;;36.35;21.70;;;5.10;43.90;;;;;;5034160;28;20089;-74
2021/12/22 10:52:00;;;;;;;39.30;22.42;;;5.20;43.20;;;;;;5029745;28;20024;-73
2021/12/22 10:54:35;;;;;;;35.35;21.77;;;5.30;43.40;;;;;;5025135;28;20043;-74
2021/12/22 10:57:03;;;;;;;43.83;24.50;;;5.70;42.70;;;;;;5033584;28;20052;-73
2021/12/22 10:59:45;;;;;;;41.08;22.95;;;5.90;41.80;;;;;;5051453;28;20060;-73
2021/12/22 11:02:18;;;;;;;35.35;22.02;;;6.30;40.70;;;;;;5051372;28;20021;-73
2021/12/22 11:04:44;;;;;;;38.45;22.38;;;6.40;39.90;;;;;;5049507;28;20040;-72
2021/12/22 11:07:15;;;;;;;35.15;22.45;;;6.90;39.50;;;;;;5032964;28;20060;-73
2021/12/22 11:09:41;;;;;;;36.22;21.20;;;7.70;37.90;;;;;;5033778;28;20029;-72
2021/12/22 11:12:07;;;;;;;31.30;19.98;;;8.10;36.30;;;;;;5052121;28;20048;-73
2021/12/22 11:14:38;;;;;;;34.13;20.02;;;8.30;35.60;;;;;;5051454;28;20025;-73
2021/12/22 11:17:12;;;;;;;32.90;20.17;;;9.30;34.40;;;;;;5051508;28;20022;-71
2021/12/22 11:19:48;;;;;;;34.00;21.80;;;9.80;32.90;;;;;;5051925;28;20025;-72
2021/12/22 11:22:17;;;;;;;;;;;10.30;31.70;;;;;;5052120;28;20018;-73
2021/12/22 11:24:48;;;;;;;34.25;21.75;;;10.30;31.00;;;;;;5051652;28;20011;-73
2021/12/22 11:27:26;;;;;;;33.03;21.05;;;10.30;31.50;;;;;;5051736;28;20021;-72
2021/12/22 11:29:54;;;;;;;33.70;21.42;;;10.90;30.90;;;;;;5051903;28;20029;-73
2021/12/22 11:32:22;;;;;;;30.60;20.85;;;11.50;29.60;;;;;;5033683;28;20491;-74
2021/12/22 11:34:50;;;;;;;29.42;21.05;;;12.20;28.10;;;;;;5051773;28;20124;-75
2021/12/22 11:37:18;;;;;;;30.63;21.25;;;12.70;26.80;;;;;;5052055;28;20025;-75
2021/12/22 11:39:44;;;;;;;29.27;20.55;;;12.90;25.70;;;;;;5051980;28;20032;-72
2021/12/22 11:42:12;;;;;;;28.48;20.38;;;13.20;25.10;;;;;;5033681;28;20029;-75
2021/12/22 11:44:38;;;;;;;28.77;21.38;;;13.70;24.70;;;;;;5051970;28;20512;-72
2021/12/22 11:47:09;;;;;;;30.08;22.63;;;14.00;24.20;;;;;;5051958;28;20051;-73
2021/12/22 11:49:37;;;;;;;30.33;23.42;;;14.60;23.10;;;;;;5034392;28;20068;-73
2021/12/22 11:52:31;;;;;;;27.90;20.80;;;15.30;22.30;;;;;;5033964;28;20415;-72
2021/12/22 11:55:29;;;;;;;27.48;21.77;;;16.20;21.40;;;;;;5052132;28;20100;-72
2021/12/22 11:58:16;;;;;;;25.00;20.50;;;16.70;19.60;;;;;;5039640;28;20132;-72
2021/12/22 12:00:54;;;;;;;24.23;19.20;;;16.60;18.80;;;;;;5039878;28;20402;-73
2021/12/22 12:03:22;;;;;;;24.02;19.90;;;17.10;18.60;;;;;;5036991;28;20025;-72
2021/12/22 12:06:23;;;;;;;29.70;21.10;;;16.30;18.10;;;;;;5037441;28;20493;-73
2021/12/22 12:08:56;;;;;;;22.38;19.05;;;16.30;18.50;;;;;;5054584;28;20330;-74
2021/12/22 12:11:36;;;;;;;24.83;20.15;;;16.60;18.20;;;;;;5036998;28;20500;-72
2021/12/22 12:14:08;;;;;;;26.20;19.30;;;17.10;18.30;;;;;;5037201;28;20060;-73
2021/12/22 12:22:34;;;;;;;25.73;18.88;;;17.90;16.70;;;;;;5055102;28;20526;-73
2021/12/22 12:25:08;;;;;;;21.85;18.42;;;18.30;16.60;;;;;;5054770;28;20025;-73
2021/12/22 12:27:37;;;;;;;28.40;22.27;;;17.20;16.60;;;;;;5054740;28;20025;-73
2021/12/22 12:30:17;;;;;;;25.63;19.88;;;17.60;17.70;;;;;;5055131;28;20071;-73
2021/12/22 12:32:54;;;;;;;23.85;20.38;;;18.10;16.80;;;;;;5037065;28;20021;-73
2021/12/22 12:35:22;;;;;;;25.60;20.98;;;18.50;16.50;;;;;;5036908;28;20504;-72
2021/12/22 12:38:17;;;;;;;26.15;21.23;;;19.00;16.00;;;;;;5054486;28;20024;-72
2021/12/22 12:40:59;;;;;;;24.08;19.02;;;18.40;15.60;;;;;;5054931;28;20017;-72
2021/12/22 12:43:44;;;;;;;22.35;19.05;;;19.00;15.70;;;;;;5054781;28;20477;-71
2021/12/22 12:46:19;;;;;;;23.13;19.88;;;19.70;15.50;;;;;;5037306;28;20035;-72
2021/12/22 12:48:49;;;;;;;23.13;18.67;;;20.30;14.80;;;;;;5037499;28;20116;-71
2021/12/22 12:51:20;;;;;;;23.13;20.23;;;19.90;14.50;;;;;;5036486;28;20399;-71